Time;durP1;ratioP1;P1;durP2;ratioP2;P2;SDS_P1;SDS_P2;PMS_P1;PMS_P2;Temp;Humidity;BMP_temperature;BMP_pressure;BME280_temperature;BME280_humidity;BME280_pressure;Samples;Min_cycle;Max_cycle;Signal;HPM_P1;HPM_P2
2022/05/24 00:00:36;;;;;;;8.02;7.22;;;15.90;99.90;;;;;;5056945;28;20089;-43
2022/05/24 00:03:02;;;;;;;9.80;8.80;;;15.90;99.90;;;;;;5061557;28;20059;-41
2022/05/24 00:05:29;;;;;;;9.95;8.93;;;15.90;99.90;;;;;;5065118;28;20017;-43
2022/05/24 00:07:55;;;;;;;11.00;9.35;;;15.90;99.90;;;;;;5065291;28;20552;-43
2022/05/24 00:10:25;;;;;;;10.10;9.07;;;15.80;99.90;;;;;;5065797;28;20127;-43
2022/05/24 00:12:50;;;;;;;9.52;8.52;;;15.90;99.90;;;;;;5065366;28;20703;-42
2022/05/24 00:15:24;;;;;;;9.50;8.50;;;15.90;99.90;;;;;;5065472;28;20059;-41
2022/05/24 00:17:57;;;;;;;9.68;8.68;;;15.80;99.90;;;;;;5055487;28;20040;-43
2022/05/24 00:20:26;;;;;;;10.02;9.02;;;15.80;99.90;;;;;;5064902;28;20023;-41
2022/05/24 00:22:53;;;;;;;9.52;8.60;;;15.90;99.90;;;;;;5065956;28;20028;-41
2022/05/24 00:25:19;;;;;;;9.50;8.60;;;15.90;99.90;;;;;;5066004;28;20017;-42
2022/05/24 00:27:46;;;;;;;9.32;8.43;;;15.90;99.90;;;;;;5064051;28;20113;-41
2022/05/24 00:30:13;;;;;;;10.25;8.60;;;15.90;99.90;;;;;;5065789;28;20313;-42
2022/05/24 00:32:38;;;;;;;11.07;9.50;;;15.90;99.90;;;;;;5065449;28;20242;-42
2022/05/24 00:35:04;;;;;;;13.35;11.95;;;15.90;99.90;;;;;;5065453;28;20452;-40
2022/05/24 00:37:32;;;;;;;15.50;13.90;;;15.90;99.90;;;;;;5065432;28;20109;-41
2022/05/24 00:39:57;;;;;;;16.40;14.70;;;15.80;99.90;;;;;;5066459;28;20021;-41
2022/05/24 00:42:27;;;;;;;15.43;13.82;;;15.90;99.90;;;;;;5064555;28;20039;-40
2022/05/24 00:45:05;;;;;;;15.95;14.35;;;15.80;99.90;;;;;;5065808;28;20032;-42
2022/05/24 00:47:38;;;;;;;15.43;13.15;;;15.80;99.90;;;;;;5065297;28;20062;-41
2022/05/24 00:50:17;;;;;;;13.35;11.90;;;15.80;99.90;;;;;;5064900;28;20464;-41
2022/05/24 00:52:55;;;;;;;14.10;12.60;;;15.90;99.90;;;;;;5065236;28;20116;-41
2022/05/24 00:55:22;;;;;;;15.43;13.40;;;15.90;99.90;;;;;;5045247;28;20087;-39
2022/05/24 00:58:07;;;;;;;16.63;14.95;;;15.90;99.90;;;;;;5059628;28;20585;-41
2022/05/24 01:00:33;;;;;;;17.40;15.15;;;15.80;99.90;;;;;;5045572;28;20588;-43
2022/05/24 01:02:58;;;;;;;16.30;14.60;;;15.80;99.90;;;;;;5050339;28;20591;-42
2022/05/24 01:05:27;;;;;;;19.38;16.85;;;15.80;99.90;;;;;;5062864;28;20032;-40
2022/05/24 01:07:53;;;;;;;15.85;14.15;;;15.80;99.90;;;;;;5056780;28;20033;-41
2022/05/24 01:10:31;;;;;;;17.45;14.75;;;15.80;99.90;;;;;;5060882;28;20536;-42
2022/05/24 01:13:11;;;;;;;18.60;15.98;;;15.80;99.90;;;;;;5058069;28;20079;-44
2022/05/24 01:15:39;;;;;;;15.55;13.20;;;15.80;99.90;;;;;;5061950;28;20029;-43
2022/05/24 01:18:05;;;;;;;14.00;12.48;;;15.70;99.90;;;;;;5057532;28;20055;-43
2022/05/24 01:20:31;;;;;;;15.93;14.23;;;15.70;99.90;;;;;;5059764;28;20060;-42
2022/05/24 01:23:25;;;;;;;18.98;15.07;;;15.70;99.90;;;;;;5060641;28;20441;-43
2022/05/24 01:26:06;;;;;;;16.90;14.68;;;15.60;99.90;;;;;;5061374;28;20119;-42
2022/05/24 01:28:39;;;;;;;14.65;13.05;;;15.60;99.90;;;;;;5062556;28;20043;-42
2022/05/24 01:31:06;;;;;;;17.88;13.63;;;15.60;99.90;;;;;;5064874;28;20025;-40
2022/05/24 01:36:18;;;;;;;18.10;15.27;;;15.50;99.90;;;;;;5048854;28;20512;-41
2022/05/24 01:38:47;;;;;;;17.45;15.40;;;15.50;99.90;;;;;;5052001;28;20028;-42
2022/05/24 01:41:18;;;;;;;16.38;13.60;;;15.50;99.90;;;;;;5053800;28;20563;-41
2022/05/24 01:43:47;;;;;;;16.77;14.85;;;15.40;99.90;;;;;;5053177;28;20499;-42
2022/05/24 01:46:16;;;;;;;17.27;14.57;;;15.40;99.90;;;;;;5054912;28;20431;-41
2022/05/24 01:48:48;;;;;;;17.17;14.85;;;15.40;99.90;;;;;;5051943;28;20096;-42
2022/05/24 01:51:17;;;;;;;24.58;17.90;;;15.40;99.90;;;;;;5056156;28;20025;-43
2022/05/24 01:53:47;;;;;;;20.02;17.80;;;15.30;99.90;;;;;;5050712;28;20017;-42
2022/05/24 01:56:20;;;;;;;19.15;17.05;;;15.30;99.90;;;;;;5057819;28;20128;-42
2022/05/24 01:58:51;;;;;;;21.00;17.00;;;15.20;99.90;;;;;;5048562;28;20473;-41
2022/05/24 02:01:30;;;;;;;25.13;20.48;;;15.20;99.90;;;;;;5047539;28;20143;-41
2022/05/24 02:03:55;;;;;;;24.23;20.25;;;15.20;99.90;;;;;;5068409;28;20056;-44
2022/05/24 02:06:26;;;;;;;23.15;19.73;;;15.20;99.90;;;;;;5067446;28;20039;-42
2022/05/24 02:08:54;;;;;;;21.67;18.85;;;15.20;99.90;;;;;;5067847;28;20029;-42
2022/05/24 02:11:23;;;;;;;16.20;14.50;;;15.20;99.90;;;;;;5067954;28;20767;-42
2022/05/24 02:14:09;;;;;;;17.05;14.82;;;15.20;99.90;;;;;;5067929;28;20384;-42
2022/05/24 02:16:40;;;;;;;17.13;15.25;;;15.20;99.90;;;;;;5066826;28;20119;-42
2022/05/24 02:19:07;;;;;;;19.23;15.07;;;15.20;99.90;;;;;;5068008;28;20020;-42
2022/05/24 02:21:32;;;;;;;18.10;13.70;;;15.20;99.90;;;;;;5067117;28;20556;-42
2022/05/24 02:23:58;;;;;;;17.23;14.63;;;15.20;99.90;;;;;;5068523;28;20107;-40
2022/05/24 02:26:26;;;;;;;18.40;14.82;;;15.10;99.90;;;;;;5066740;28;20425;-41
2022/05/24 02:28:53;;;;;;;15.73;13.25;;;15.10;99.90;;;;;;5068099;28;20041;-43
2022/05/24 02:31:20;;;;;;;17.13;13.38;;;15.10;99.90;;;;;;5067221;28;20127;-42
2022/05/24 02:33:46;;;;;;;12.38;11.05;;;15.10;99.90;;;;;;5067056;28;20028;-42
2022/05/24 02:36:13;;;;;;;14.35;12.15;;;15.10;99.90;;;;;;5067906;28;20109;-42
2022/05/24 02:38:39;;;;;;;13.27;10.18;;;15.10;99.90;;;;;;5067513;28;20032;-41
2022/05/24 02:43:48;;;;;;;11.88;9.52;;;15.00;99.90;;;;;;5067356;28;20080;-41
2022/05/24 02:46:16;;;;;;;10.40;8.40;;;14.90;99.90;;;;;;5067302;28;20383;-41
2022/05/24 02:48:42;;;;;;;10.15;7.78;;;14.90;99.90;;;;;;5066313;28;20040;-42
2022/05/24 02:51:09;;;;;;;13.95;8.55;;;14.80;99.90;;;;;;5067206;28;20013;-42
2022/05/24 02:53:35;;;;;;;9.73;7.65;;;14.80;99.90;;;;;;5067437;28;20036;-42
2022/05/24 02:56:02;;;;;;;13.05;8.63;;;14.70;99.90;;;;;;5066965;28;20021;-42
2022/05/24 02:58:28;;;;;;;11.07;6.90;;;14.60;99.90;;;;;;5067573;28;20032;-42
2022/05/24 03:00:53;;;;;;;8.25;5.93;;;14.60;99.90;;;;;;5067764;28;20454;-41
2022/05/24 03:03:19;;;;;;;8.30;5.78;;;14.50;99.90;;;;;;5057429;28;20045;-42
2022/05/24 03:05:45;;;;;;;8.10;6.32;;;14.40;99.90;;;;;;5048600;28;20542;-41
2022/05/24 03:10:54;;;;;;;10.43;5.50;;;14.40;99.90;;;;;;5049303;28;20090;-42
2022/05/24 03:16:13;;;;;;;8.57;6.28;;;14.40;99.90;;;;;;5047976;28;20068;-42
2022/05/24 03:18:40;;;;;;;9.52;5.32;;;14.40;99.90;;;;;;5058407;28;20393;-42
2022/05/24 03:21:06;;;;;;;10.10;5.28;;;14.40;99.90;;;;;;5048416;28;20021;-41
2022/05/24 03:23:32;;;;;;;6.03;4.20;;;14.40;99.90;;;;;;5053244;28;20469;-41
2022/05/24 03:25:57;;;;;;;7.22;3.80;;;14.40;99.90;;;;;;5047521;28;20035;-41
2022/05/24 03:28:23;;;;;;;6.38;4.68;;;14.40;99.90;;;;;;5060733;28;20033;-41
2022/05/24 03:30:49;;;;;;;8.23;4.70;;;14.40;99.90;;;;;;5066321;28;20097;-40
2022/05/24 03:33:14;;;;;;;9.80;4.82;;;14.40;99.90;;;;;;5053490;28;20029;-40
2022/05/24 03:35:43;;;;;;;8.38;4.65;;;14.40;99.90;;;;;;5067241;28;20024;-44
2022/05/24 03:38:09;;;;;;;7.85;4.22;;;14.40;99.90;;;;;;5055677;28;20469;-41
2022/05/24 03:40:35;;;;;;;8.65;5.18;;;14.40;99.90;;;;;;5064094;28;20027;-42
2022/05/24 03:43:02;;;;;;;6.65;4.03;;;14.40;99.90;;;;;;5058449;28;20488;-42
2022/05/24 03:45:28;;;;;;;8.30;4.47;;;14.40;99.90;;;;;;5060703;28;20111;-41
2022/05/24 03:47:54;;;;;;;5.35;4.03;;;14.40;99.90;;;;;;5061436;28;20391;-42
2022/05/24 03:50:22;;;;;;;5.80;3.67;;;14.30;99.90;;;;;;5059300;28;20060;-40
2022/05/24 03:52:48;;;;;;;5.57;3.70;;;14.30;99.90;;;;;;5061887;28;20515;-43
2022/05/24 03:55:14;;;;;;;6.03;3.30;;;14.30;99.90;;;;;;5057203;28;20028;-42
2022/05/24 04:00:25;;;;;;;7.10;4.40;;;14.30;99.90;;;;;;5047572;28;20182;-43
2022/05/24 04:02:51;;;;;;;6.82;4.28;;;14.30;99.90;;;;;;5066313;28;20412;-42
2022/05/24 04:05:16;;;;;;;7.00;4.05;;;14.30;99.90;;;;;;5065413;28;20558;-40
2022/05/24 04:07:42;;;;;;;5.85;3.67;;;14.20;99.90;;;;;;5066044;28;20637;-42
2022/05/24 04:10:10;;;;;;;5.57;3.50;;;14.20;99.90;;;;;;5066530;28;20509;-42
2022/05/24 04:12:36;;;;;;;6.43;4.13;;;14.20;99.90;;;;;;5064969;28;20387;-42
2022/05/24 04:15:01;;;;;;;4.65;3.42;;;14.30;99.90;;;;;;5066080;28;20040;-39
2022/05/24 04:17:27;;;;;;;7.15;3.55;;;14.30;99.90;;;;;;5066119;28;20016;-43
2022/05/24 04:19:52;;;;;;;7.90;4.07;;;14.30;99.90;;;;;;5064889;28;20044;-43
2022/05/24 04:22:18;;;;;;;6.90;4.63;;;14.30;99.90;;;;;;5065390;28;20027;-41
2022/05/24 04:24:43;;;;;;;6.47;4.57;;;14.30;99.90;;;;;;5065854;28;20043;-42
2022/05/24 04:27:09;;;;;;;6.05;4.47;;;14.30;99.90;;;;;;5065726;28;20522;-43
2022/05/24 04:29:39;;;;;;;6.68;3.90;;;14.30;99.90;;;;;;5064937;28;20037;-42
2022/05/24 04:32:04;;;;;;;6.28;3.95;;;14.30;99.90;;;;;;5066375;28;20183;-43
2022/05/24 04:34:30;;;;;;;6.13;3.72;;;14.40;99.90;;;;;;5064451;28;20508;-43
2022/05/24 04:36:55;;;;;;;6.28;4.25;;;14.40;99.90;;;;;;5065983;28;20480;-43
2022/05/24 04:39:21;;;;;;;5.30;4.10;;;14.40;99.90;;;;;;5065409;28;20017;-42
2022/05/24 04:44:30;;;;;;;6.60;4.75;;;14.40;99.90;;;;;;5065401;28;20082;-42
2022/05/24 04:47:08;;;;;;;5.57;4.53;;;14.40;99.90;;;;;;5065739;28;20511;-40
2022/05/24 04:49:35;;;;;;;7.28;4.80;;;14.30;99.90;;;;;;5065062;28;20039;-41
2022/05/24 04:52:01;;;;;;;11.55;5.45;;;14.30;99.90;;;;;;5066031;28;20028;-41
2022/05/24 04:54:27;;;;;;;5.68;4.28;;;14.40;99.90;;;;;;5064478;28;20020;-41
2022/05/24 04:56:52;;;;;;;8.38;4.85;;;14.40;99.90;;;;;;5066006;28;20029;-42
2022/05/24 04:59:18;;;;;;;7.82;4.47;;;14.40;99.90;;;;;;5065157;28;20571;-43
2022/05/24 05:01:44;;;;;;;10.95;6.28;;;14.40;99.90;;;;;;5064528;28;20036;-40
2022/05/24 05:04:10;;;;;;;6.40;5.13;;;14.40;99.90;;;;;;5066446;28;20039;-41
2022/05/24 05:06:36;;;;;;;8.10;4.75;;;14.40;99.90;;;;;;5052219;28;20036;-43
2022/05/24 05:09:02;;;;;;;8.35;5.05;;;14.40;99.90;;;;;;5064912;28;20037;-41
2022/05/24 05:11:28;;;;;;;9.35;5.95;;;14.50;99.90;;;;;;5052625;28;20040;-43
2022/05/24 05:13:53;;;;;;;11.02;6.30;;;14.50;99.90;;;;;;5066644;28;20025;-42
2022/05/24 05:16:19;;;;;;;8.73;5.90;;;14.50;99.90;;;;;;5058981;28;20017;-42
2022/05/24 05:18:45;;;;;;;7.45;5.68;;;14.50;99.90;;;;;;5066714;28;20032;-42
2022/05/24 05:21:11;;;;;;;7.03;5.78;;;14.50;99.90;;;;;;5062752;28;20025;-42
2022/05/24 05:23:37;;;;;;;7.50;5.40;;;14.40;99.90;;;;;;5062165;28;20445;-41
2022/05/24 05:26:02;;;;;;;6.43;5.53;;;14.40;99.90;;;;;;5064798;28;20044;-41
2022/05/24 05:28:28;;;;;;;9.05;6.10;;;14.40;99.90;;;;;;5057447;28;20073;-43
2022/05/24 05:33:37;;;;;;;6.15;5.13;;;14.40;99.90;;;;;;5057995;28;20099;-42
2022/05/24 05:36:03;;;;;;;9.27;6.45;;;14.40;99.90;;;;;;5050760;28;20504;-43
2022/05/24 05:38:31;;;;;;;10.35;6.63;;;14.40;99.90;;;;;;5059359;28;20025;-42
2022/05/24 05:40:57;;;;;;;7.38;6.43;;;14.40;99.90;;;;;;5050726;28;20021;-43
2022/05/24 05:43:23;;;;;;;9.13;6.78;;;14.40;99.90;;;;;;5058103;28;20374;-41
2022/05/24 05:45:59;;;;;;;9.57;7.00;;;14.40;99.90;;;;;;5042803;28;20522;-41
2022/05/24 05:48:25;;;;;;;8.13;6.55;;;14.40;99.90;;;;;;5049783;28;20048;-42
2022/05/24 05:50:54;;;;;;;11.43;7.53;;;14.40;99.90;;;;;;5067025;28;20024;-41
2022/05/24 05:53:20;;;;;;;12.07;7.63;;;14.40;99.90;;;;;;5054844;28;20028;-41
2022/05/24 05:55:46;;;;;;;8.85;5.55;;;14.40;99.90;;;;;;5068254;28;20017;-44
2022/05/24 05:58:12;;;;;;;6.20;5.15;;;14.50;99.90;;;;;;5053834;28;20457;-42
2022/05/24 06:00:41;;;;;;;9.35;5.88;;;14.60;99.90;;;;;;5067484;28;20025;-41
2022/05/24 06:03:08;;;;;;;11.30;6.10;;;14.60;99.90;;;;;;5054938;28;20497;-42
2022/05/24 06:05:34;;;;;;;7.65;6.38;;;14.60;99.90;;;;;;5047151;28;20032;-43
2022/05/24 06:08:00;;;;;;;11.00;7.15;;;14.60;99.90;;;;;;5048203;28;20036;-43
2022/05/24 06:10:28;;;;;;;8.73;6.65;;;14.60;99.90;;;;;;5047149;28;20486;-41
2022/05/24 06:12:54;;;;;;;8.38;6.03;;;14.60;99.90;;;;;;5046890;28;20056;-42
2022/05/24 06:15:20;;;;;;;8.07;5.95;;;14.60;99.90;;;;;;5047883;28;20110;-40
2022/05/24 06:17:49;;;;;;;10.10;7.05;;;14.70;99.90;;;;;;5047638;28;20071;-42
2022/05/24 06:20:17;;;;;;;6.97;6.32;;;14.70;99.90;;;;;;5046900;28;20028;-42
2022/05/24 06:22:43;;;;;;;9.55;7.13;;;14.70;99.90;;;;;;5046722;28;20469;-41
2022/05/24 06:25:09;;;;;;;7.35;6.32;;;14.80;99.90;;;;;;5046198;28;20017;-42
2022/05/24 06:27:35;;;;;;;10.32;6.78;;;14.70;99.90;;;;;;5046024;28;20088;-43
2022/05/24 06:30:00;;;;;;;8.20;6.70;;;14.80;99.90;;;;;;5047593;28;20038;-42
2022/05/24 06:32:26;;;;;;;7.70;6.65;;;14.80;99.90;;;;;;5047424;28;20029;-41
2022/05/24 06:34:53;;;;;;;9.23;7.00;;;14.80;99.90;;;;;;5046597;28;20021;-42
2022/05/24 06:37:22;;;;;;;9.90;6.93;;;14.80;99.90;;;;;;5047251;28;20492;-41
2022/05/24 06:39:47;;;;;;;7.53;6.05;;;14.70;99.90;;;;;;5046954;28;20021;-42
2022/05/24 06:42:13;;;;;;;7.55;6.18;;;14.70;99.90;;;;;;5047144;28;20094;-42
2022/05/24 06:44:42;;;;;;;11.85;7.32;;;14.80;99.90;;;;;;5047241;28;20090;-42
2022/05/24 06:47:10;;;;;;;7.57;6.00;;;14.80;99.90;;;;;;5047185;28;20045;-42
2022/05/24 06:49:36;;;;;;;9.38;6.80;;;14.80;99.90;;;;;;5047459;28;20033;-40
2022/05/24 06:52:03;;;;;;;8.65;6.70;;;14.80;99.90;;;;;;5047678;28;20056;-43
2022/05/24 06:54:31;;;;;;;7.20;6.13;;;14.70;99.90;;;;;;5046418;28;20045;-41
2022/05/24 06:56:56;;;;;;;6.63;5.97;;;14.80;99.90;;;;;;5048070;28;20029;-42
2022/05/24 07:02:25;;;;;;;7.90;6.32;;;14.80;99.90;;;;;;5046512;28;20044;-41
2022/05/24 07:05:02;;;;;;;7.30;6.60;;;14.80;99.90;;;;;;5047232;28;20041;-36
2022/05/24 07:07:30;;;;;;;7.13;5.85;;;14.80;99.90;;;;;;5046480;28;20068;-41
2022/05/24 07:09:56;;;;;;;9.52;7.00;;;14.80;99.90;;;;;;5046445;28;20029;-41
2022/05/24 07:12:22;;;;;;;7.38;6.68;;;14.90;99.90;;;;;;5046497;28;20496;-42
2022/05/24 07:14:48;;;;;;;7.18;6.50;;;14.90;99.90;;;;;;5045437;28;20482;-41
2022/05/24 07:17:15;;;;;;;8.27;7.38;;;15.00;99.90;;;;;;5046182;28;20037;-42
2022/05/24 07:19:41;;;;;;;8.45;7.15;;;15.20;99.90;;;;;;5046624;28;20025;-41
2022/05/24 07:22:07;;;;;;;9.85;7.13;;;15.30;99.90;;;;;;5045653;28;20397;-47
2022/05/24 07:24:34;;;;;;;10.15;6.85;;;15.30;99.90;;;;;;5046044;28;20025;-42
2022/05/24 07:26:59;;;;;;;10.23;7.30;;;15.40;99.90;;;;;;5046751;28;20468;-43
2022/05/24 07:29:29;;;;;;;8.52;6.75;;;15.50;99.90;;;;;;5045251;28;20031;-42
2022/05/24 07:31:54;;;;;;;7.50;6.85;;;15.70;99.90;;;;;;5046716;28;20024;-43
2022/05/24 07:34:20;;;;;;;6.85;6.15;;;15.70;99.90;;;;;;5046014;28;20040;-43
2022/05/24 07:36:45;;;;;;;7.57;6.50;;;15.80;99.90;;;;;;5045126;28;20131;-42
2022/05/24 07:39:11;;;;;;;7.15;6.28;;;15.90;99.90;;;;;;5046498;28;20032;-41
2022/05/24 07:47:09;;;;;;;7.28;5.50;;;16.20;99.90;;;;;;5047030;28;20763;-43
2022/05/24 07:49:36;;;;;;;7.38;4.63;;;16.30;99.90;;;;;;5045753;28;20032;-40
2022/05/24 07:52:04;;;;;;;4.97;4.55;;;16.30;99.90;;;;;;5044890;28;20400;-41
2022/05/24 07:54:31;;;;;;;5.32;3.88;;;16.30;99.90;;;;;;5045685;28;20053;-42
2022/05/24 07:56:59;;;;;;;6.68;4.75;;;16.30;99.90;;;;;;5045313;28;20033;-42
2022/05/24 07:59:25;;;;;;;5.50;3.97;;;16.20;99.90;;;;;;5046422;28;20373;-41
2022/05/24 08:01:51;;;;;;;3.42;3.13;;;16.20;99.90;;;;;;5045748;28;20028;-39
2022/05/24 08:04:16;;;;;;;4.32;3.83;;;16.20;99.90;;;;;;5045443;28;20063;-42
2022/05/24 08:06:42;;;;;;;4.70;3.38;;;16.30;99.90;;;;;;5046156;28;20060;-42
2022/05/24 08:09:08;;;;;;;3.80;3.22;;;16.40;99.90;;;;;;5046253;28;20044;-42
2022/05/24 08:11:33;;;;;;;5.15;3.70;;;16.40;99.90;;;;;;5044598;28;20476;-40
2022/05/24 08:14:02;;;;;;;3.67;3.33;;;16.40;99.90;;;;;;5045719;28;20037;-43
2022/05/24 08:16:29;;;;;;;5.07;4.22;;;16.50;99.90;;;;;;5045989;28;20021;-42
2022/05/24 08:18:55;;;;;;;3.75;3.40;;;16.60;99.90;;;;;;5045630;28;20609;-43
2022/05/24 08:21:20;;;;;;;3.65;3.35;;;16.70;99.90;;;;;;5046696;28;20017;-40
2022/05/24 08:23:46;;;;;;;3.70;3.35;;;16.70;99.90;;;;;;5045791;28;20129;-39
2022/05/24 08:26:12;;;;;;;5.72;4.10;;;16.70;99.90;;;;;;5044917;28;20454;-39
2022/05/24 08:28:40;;;;;;;4.10;2.85;;;16.70;99.90;;;;;;5044907;28;20045;-42
2022/05/24 08:31:10;;;;;;;5.45;2.72;;;16.60;99.90;;;;;;5045518;28;20099;-41
2022/05/24 08:33:36;;;;;;;4.53;2.80;;;16.70;99.90;;;;;;5044876;28;20106;-41
2022/05/24 08:36:02;;;;;;;3.33;2.10;;;16.70;99.90;;;;;;5045972;28;20559;-43
2022/05/24 08:38:28;;;;;;;3.40;1.88;;;16.70;99.90;;;;;;5044835;28;20040;-43
2022/05/24 08:40:59;;;;;;;5.20;2.13;;;16.90;99.90;;;;;;5045232;28;20029;-42
2022/05/24 08:43:56;;;;;;;3.45;1.70;;;17.00;99.90;;;;;;5045204;28;20518;-41
2022/05/24 08:49:20;;;;;;;2.78;1.30;;;17.10;99.90;;;;;;5046842;28;20059;-41
2022/05/24 08:52:00;;;;;;;2.60;1.40;;;17.00;99.90;;;;;;5049576;28;20029;-42
2022/05/24 08:54:45;;;;;;;2.08;1.70;;;16.90;99.90;;;;;;5047021;28;20021;-41
2022/05/24 08:57:15;;;;;;;4.75;1.80;;;16.70;99.90;;;;;;5049794;28;20361;-40
2022/05/24 09:00:13;;;;;;;3.30;1.90;;;16.70;99.90;;;;;;5050071;28;20033;-42
2022/05/24 09:02:44;;;;;;;2.55;2.13;;;16.60;99.90;;;;;;5041093;28;20039;-43
2022/05/24 09:05:20;;;;;;;4.32;2.20;;;16.60;99.90;;;;;;5058391;28;20464;-41
2022/05/24 09:08:14;;;;;;;2.70;2.50;;;16.50;99.90;;;;;;5067010;28;20487;-42
2022/05/24 09:10:51;;;;;;;3.28;1.95;;;16.30;99.90;;;;;;5054649;28;20020;-42
2022/05/24 09:13:35;;;;;;;4.55;2.08;;;16.20;99.90;;;;;;5059633;28;20029;-41
2022/05/24 09:16:12;;;;;;;3.75;1.70;;;16.30;99.90;;;;;;5051216;28;20070;-43
2022/05/24 09:18:54;;;;;;;3.92;1.85;;;16.40;99.90;;;;;;5066385;28;20016;-43
2022/05/24 09:21:29;;;;;;;3.38;2.05;;;16.60;99.90;;;;;;5061042;28;20032;-39
2022/05/24 09:24:16;;;;;;;2.58;1.60;;;16.70;99.90;;;;;;5065724;28;20429;-43
2022/05/24 09:27:22;;;;;;;4.07;1.65;;;16.70;99.90;;;;;;5063462;28;20385;-43
2022/05/24 09:29:52;;;;;;;2.65;1.60;;;16.70;99.90;;;;;;5058494;28;20037;-41
2022/05/24 09:32:19;;;;;;;2.17;1.70;;;16.80;99.90;;;;;;5066312;28;20052;-43
2022/05/24 09:34:44;;;;;;;2.90;1.80;;;16.90;99.90;;;;;;5060903;28;20417;-41
2022/05/24 09:37:22;;;;;;;3.20;2.15;;;17.00;99.90;;;;;;5063405;28;20039;-42
2022/05/24 09:40:15;;;;;;;4.03;2.03;;;17.10;99.90;;;;;;5061520;28;20380;-43
2022/05/24 09:42:41;;;;;;;2.60;2.38;;;17.00;99.90;;;;;;5065895;28;20764;-41
2022/05/24 09:45:09;;;;;;;2.53;1.83;;;17.10;99.90;;;;;;5060848;28;20492;-43
2022/05/24 09:47:51;;;;;;;2.88;1.63;;;17.10;99.90;;;;;;5060570;28;20049;-42
2022/05/24 09:50:25;;;;;;;5.20;1.73;;;17.10;99.90;;;;;;5061685;28;20648;-42
2022/05/24 09:53:06;;;;;;;2.45;1.67;;;17.20;99.90;;;;;;5062380;28;20035;-41
2022/05/24 09:55:34;;;;;;;2.22;1.90;;;17.30;99.90;;;;;;5048827;28;20685;-42
2022/05/24 09:58:52;;;;;;;2.50;2.13;;;17.30;99.90;;;;;;5050802;28;20480;-41
2022/05/24 10:01:35;;;;;;;2.00;1.85;;;17.20;99.90;;;;;;5036518;28;20048;-42
2022/05/24 10:04:17;;;;;;;2.55;1.67;;;17.10;99.90;;;;;;5067924;28;20127;-42
2022/05/24 10:06:55;;;;;;;1.90;1.55;;;17.20;99.90;;;;;;5055699;28;20446;-42
2022/05/24 10:09:40;;;;;;;2.38;1.48;;;17.10;99.90;;;;;;5045828;28;20051;-41
2022/05/24 10:12:26;;;;;;;1.48;1.30;;;17.10;99.90;;;;;;5053421;28;20103;-42
2022/05/24 10:15:17;;;;;;;1.95;1.55;;;17.20;99.90;;;;;;5049300;28;20119;-42
2022/05/24 10:18:01;;;;;;;4.28;1.23;;;17.30;99.90;;;;;;5057659;28;20055;-41
2022/05/24 10:20:49;;;;;;;1.33;0.93;;;17.30;99.90;;;;;;5050254;28;20139;-41
2022/05/24 10:23:42;;;;;;;2.50;1.10;;;17.30;99.90;;;;;;5038668;28;20037;-41
2022/05/24 10:26:39;;;;;;;3.97;1.40;;;17.00;99.90;;;;;;5051103;28;20025;-42
2022/05/24 10:29:24;;;;;;;1.90;1.30;;;16.60;99.90;;;;;;5032129;28;20041;-43
2022/05/24 10:31:56;;;;;;;1.75;1.33;;;16.40;99.90;;;;;;5056143;28;20040;-40
2022/05/24 10:41:15;;;;;;;2.67;1.48;;;16.20;99.90;;;;;;5043155;28;20103;-39
2022/05/24 10:44:13;;;;;;;2.80;1.83;;;16.10;99.90;;;;;;4961254;28;20816;-42
2022/05/24 10:46:49;;;;;;;10.07;2.05;;;16.30;99.90;;;;;;4999045;28;20037;-40
2022/05/24 10:49:33;;;;;;;2.03;1.70;;;16.40;99.90;;;;;;5056505;28;20055;-41
2022/05/24 10:52:31;;;;;;;1.25;1.10;;;16.40;99.90;;;;;;5053377;28;20028;-43
2022/05/24 10:55:19;;;;;;;1.98;1.00;;;16.40;99.90;;;;;;5052705;28;20017;-41
2022/05/24 10:57:54;;;;;;;2.22;1.20;;;16.50;99.90;;;;;;5058186;28;20056;-43
2022/05/24 11:00:23;;;;;;;1.98;0.90;;;16.70;99.90;;;;;;5049237;28;20567;-41
2022/05/24 11:03:11;;;;;;;1.52;0.90;;;16.80;99.90;;;;;;5053089;28;20520;-40
2022/05/24 11:05:46;;;;;;;1.15;0.90;;;16.90;99.90;;;;;;5068169;28;20024;-42
2022/05/24 11:08:35;;;;;;;1.77;0.85;;;17.10;99.90;;;;;;5057705;28;20106;-41
2022/05/24 11:11:32;;;;;;;1.30;0.85;;;17.20;99.90;;;;;;5034944;28;20033;-43
2022/05/24 11:14:15;;;;;;;1.42;0.85;;;17.20;99.90;;;;;;5061628;28;20032;-42
2022/05/24 11:16:44;;;;;;;2.97;0.80;;;17.10;99.90;;;;;;5048843;28;20033;-42
2022/05/24 11:19:36;;;;;;;1.13;0.75;;;17.00;99.90;;;;;;5061513;28;20051;-41
2022/05/24 11:22:08;;;;;;;1.50;1.10;;;16.90;99.90;;;;;;5048286;28;20358;-41
2022/05/24 11:24:47;;;;;;;1.90;0.90;;;16.80;99.90;;;;;;5057520;28;20024;-41
2022/05/24 11:27:22;;;;;;;2.70;0.77;;;16.70;99.90;;;;;;5067930;28;20062;-43
2022/05/24 11:29:51;;;;;;;1.50;0.77;;;16.60;99.90;;;;;;5050932;28;20035;-42
2022/05/24 11:32:39;;;;;;;0.93;0.70;;;16.50;99.90;;;;;;5048958;28;20029;-42
2022/05/24 11:35:19;;;;;;;0.45;0.45;;;16.40;99.90;;;;;;5056967;28;20107;-42
2022/05/24 11:37:51;;;;;;;1.10;0.50;;;16.30;99.90;;;;;;5050094;28;20035;-41
2022/05/24 11:40:39;;;;;;;1.02;0.60;;;16.30;99.90;;;;;;5059632;28;20104;-42
2022/05/24 11:43:10;;;;;;;1.67;0.82;;;16.30;99.90;;;;;;5049240;28;20054;-44
2022/05/24 11:45:55;;;;;;;2.00;0.65;;;16.40;99.90;;;;;;5059221;28;20488;-42
2022/05/24 11:48:22;;;;;;;2.25;1.02;;;16.40;99.90;;;;;;5049189;28;20039;-41
2022/05/24 11:50:53;;;;;;;3.50;0.77;;;16.30;99.90;;;;;;5058485;28;20081;-41
2022/05/24 11:53:21;;;;;;;2.92;1.13;;;16.30;99.90;;;;;;5048809;28;20025;-42
2022/05/24 11:56:08;;;;;;;1.23;0.70;;;16.30;99.90;;;;;;5059771;28;20068;-42
2022/05/24 11:58:34;;;;;;;2.20;0.50;;;16.30;99.90;;;;;;5048449;28;20120;-43
2022/05/24 12:01:29;;;;;;;0.98;0.50;;;16.30;99.90;;;;;;5059149;28;20109;-42
2022/05/24 12:10:01;;;;;;;1.33;0.60;;;16.40;99.90;;;;;;5048395;28;20052;-42
2022/05/24 12:12:31;;;;;;;1.50;0.70;;;16.50;99.90;;;;;;5047295;28;20468;-42
2022/05/24 12:15:15;;;;;;;1.20;0.70;;;16.60;99.90;;;;;;5048476;28;20009;-43
2022/05/24 12:17:41;;;;;;;1.42;0.60;;;16.70;99.90;;;;;;5047351;28;20021;-41
2022/05/24 12:20:35;;;;;;;0.95;0.75;;;16.90;99.90;;;;;;5048351;28;20043;-44
2022/05/24 12:23:32;;;;;;;3.05;0.93;;;17.40;99.90;;;;;;5045707;28;20037;-42
2022/05/24 12:26:13;;;;;;;1.23;0.80;;;17.70;99.90;;;;;;5047655;28;20029;-44
2022/05/24 12:28:38;;;;;;;1.75;0.80;;;17.80;99.90;;;;;;5028916;28;20041;-42
2022/05/24 12:31:13;;;;;;;2.08;0.60;;;17.80;99.90;;;;;;5047544;28;20025;-43
2022/05/24 12:33:57;;;;;;;2.65;1.10;;;17.80;99.90;;;;;;5047569;28;20025;-42
2022/05/24 12:36:30;;;;;;;1.73;0.73;;;17.70;99.90;;;;;;5047586;28;20032;-43
2022/05/24 12:39:07;;;;;;;1.02;0.65;;;17.40;99.90;;;;;;5027891;28;20033;-42
2022/05/24 12:41:47;;;;;;;1.50;0.63;;;17.30;99.90;;;;;;5043258;28;20025;-42
2022/05/24 12:44:14;;;;;;;0.60;0.60;;;17.20;99.90;;;;;;5027771;28;20045;-42
2022/05/24 12:46:42;;;;;;;1.08;0.80;;;17.20;99.90;;;;;;5043227;28;20014;-40
2022/05/24 12:49:19;;;;;;;1.63;0.70;;;17.10;99.90;;;;;;5047573;28;20073;-41
2022/05/24 12:51:45;;;;;;;1.15;0.60;;;17.20;99.90;;;;;;5046202;28;20036;-41
2022/05/24 12:54:16;;;;;;;0.93;0.60;;;17.20;99.90;;;;;;5047655;28;20028;-42
2022/05/24 12:56:53;;;;;;;0.98;0.57;;;17.20;99.70;;;;;;5047580;28;20071;-43
2022/05/24 12:59:36;;;;;;;0.70;0.47;;;17.10;99.90;;;;;;5046874;28;20017;-42
